Time;durP1;ratioP1;P1;durP2;ratioP2;P2;SDS_P1;SDS_P2;PMS_P1;PMS_P2;Temp;Humidity;BMP_temperature;BMP_pressure;BME280_temperature;BME280_humidity;BME280_pressure;Samples;Min_cycle;Max_cycle;Signal;HPM_P1;HPM_P2
2023/03/11 00:01:02;;;;;;;21.45;7.90;;;0.20;99.90;;;;;;5034658;28;20419;-82
2023/03/11 00:03:29;;;;;;;18.77;6.85;;;0.20;99.90;;;;;;5034864;28;20078;-84
2023/03/11 00:05:57;;;;;;;19.90;7.30;;;0.10;99.90;;;;;;5035516;28;20063;-84
2023/03/11 00:08:24;;;;;;;18.88;7.20;;;0.10;99.90;;;;;;5034414;28;20057;-84
2023/03/11 00:10:50;;;;;;;19.15;7.00;;;0.00;99.90;;;;;;5034512;28;20064;-82
2023/03/11 00:13:17;;;;;;;18.05;7.20;;;0.00;99.90;;;;;;5034161;28;20042;-82
2023/03/11 00:15:44;;;;;;;22.48;6.75;;;0.00;99.90;;;;;;5033548;28;20054;-84
2023/03/11 00:18:12;;;;;;;17.05;6.45;;;-0.10;99.90;;;;;;5034397;28;20044;-81
2023/03/11 00:20:39;;;;;;;15.07;6.68;;;-0.20;99.90;;;;;;5035359;28;20037;-85
2023/03/11 00:23:05;;;;;;;17.75;7.07;;;-0.20;99.90;;;;;;5033935;28;20057;-85
2023/03/11 00:25:32;;;;;;;18.25;6.18;;;-0.20;99.90;;;;;;5017877;28;20207;-83
2023/03/11 00:27:59;;;;;;;16.55;5.80;;;-0.30;99.90;;;;;;5033262;28;20042;-84
2023/03/11 00:30:26;;;;;;;13.60;5.80;;;-0.30;99.90;;;;;;5018018;28;20470;-85
2023/03/11 00:32:52;;;;;;;16.38;6.80;;;-0.30;99.90;;;;;;5016579;28;20041;-82
2023/03/11 00:35:19;;;;;;;16.35;6.43;;;-0.30;99.90;;;;;;5016839;28;20065;-84
2023/03/11 00:37:45;;;;;;;15.40;6.45;;;-0.40;99.90;;;;;;5033946;28;20054;-83
2023/03/11 00:40:12;;;;;;;17.48;6.40;;;-0.30;99.90;;;;;;5033972;28;20045;-83
2023/03/11 00:42:39;;;;;;;19.08;5.95;;;-0.40;99.90;;;;;;5032518;28;20061;-85
2023/03/11 00:45:05;;;;;;;15.70;5.97;;;-0.40;99.90;;;;;;5034221;28;20530;-82
2023/03/11 00:47:32;;;;;;;14.60;5.97;;;-0.40;99.90;;;;;;5033897;28;20033;-82
2023/03/11 00:49:59;;;;;;;13.77;5.22;;;-0.50;99.90;;;;;;5034117;28;20049;-82
2023/03/11 00:52:25;;;;;;;22.65;6.43;;;-0.50;99.90;;;;;;5017339;28;20045;-82
2023/03/11 00:54:52;;;;;;;14.60;5.75;;;-0.50;99.90;;;;;;5032787;28;20392;-85
2023/03/11 00:57:19;;;;;;;13.20;5.38;;;-0.50;99.90;;;;;;5033806;28;20044;-84
2023/03/11 00:59:46;;;;;;;16.27;6.13;;;-0.50;99.90;;;;;;5054675;28;20041;-82
2023/03/11 01:02:12;;;;;;;16.63;5.63;;;-0.50;99.90;;;;;;5052698;28;20067;-85
2023/03/11 01:04:39;;;;;;;16.73;5.90;;;-0.50;99.90;;;;;;5030876;28;20056;-85
2023/03/11 01:07:06;;;;;;;15.00;5.80;;;-0.60;99.90;;;;;;5015476;28;20053;-82
2023/03/11 01:09:33;;;;;;;18.30;5.93;;;-0.60;99.90;;;;;;5032388;28;20042;-82
2023/03/11 01:11:59;;;;;;;17.80;6.25;;;-0.60;99.90;;;;;;5033822;28;20049;-83
2023/03/11 01:14:27;;;;;;;14.93;5.53;;;-0.60;99.90;;;;;;5016773;28;20064;-83
2023/03/11 01:16:54;;;;;;;15.57;6.43;;;-0.60;99.90;;;;;;5034589;28;20064;-85
2023/03/11 01:19:20;;;;;;;17.70;5.68;;;-0.60;99.90;;;;;;5033645;28;20423;-83
2023/03/11 01:21:47;;;;;;;17.38;5.43;;;-0.60;99.90;;;;;;5032035;28;20137;-84
2023/03/11 01:24:14;;;;;;;22.05;6.22;;;-0.70;99.90;;;;;;5033539;28;20046;-81
2023/03/11 01:26:40;;;;;;;17.75;5.28;;;-0.70;99.90;;;;;;5017123;28;20103;-82
2023/03/11 01:29:07;;;;;;;18.98;5.60;;;-0.70;99.90;;;;;;5033479;28;20045;-84
2023/03/11 01:31:34;;;;;;;16.92;5.18;;;-0.80;99.90;;;;;;5017213;28;20053;-83
2023/03/11 01:34:01;;;;;;;13.88;5.00;;;-0.80;99.90;;;;;;5017226;28;20383;-83
2023/03/11 01:36:28;;;;;;;14.80;5.68;;;-0.80;99.90;;;;;;5015907;28;20041;-84
2023/03/11 01:38:56;;;;;;;17.80;5.38;;;-0.80;99.90;;;;;;5033483;28;20045;-83
2023/03/11 01:41:22;;;;;;;15.93;5.03;;;-0.90;99.90;;;;;;5015726;28;20376;-85
2023/03/11 01:43:49;;;;;;;12.07;5.18;;;-0.90;99.90;;;;;;5035504;28;20057;-83
2023/03/11 01:46:22;;;;;;;16.85;6.22;;;-0.90;99.90;;;;;;5021970;28;20422;-85
2023/03/11 01:48:49;;;;;;;12.27;5.20;;;-1.00;99.90;;;;;;5036356;28;20040;-85
2023/03/11 01:51:16;;;;;;;17.90;6.10;;;-1.00;99.90;;;;;;5037761;28;20052;-82
2023/03/11 01:53:42;;;;;;;16.63;5.43;;;-1.00;99.90;;;;;;5020783;28;20038;-82
2023/03/11 01:56:09;;;;;;;18.20;5.72;;;-1.00;99.90;;;;;;5019753;28;20037;-83
2023/03/11 01:58:36;;;;;;;13.00;5.25;;;-1.00;99.90;;;;;;5037178;28;20056;-83
2023/03/11 02:01:02;;;;;;;13.52;5.15;;;-1.00;99.90;;;;;;5035736;28;20041;-83
2023/03/11 02:03:30;;;;;;;18.08;5.50;;;-1.00;99.90;;;;;;5036906;28;20422;-84
2023/03/11 02:05:57;;;;;;;13.73;5.57;;;-1.10;99.90;;;;;;5020647;28;20076;-82
2023/03/11 02:08:24;;;;;;;13.13;6.03;;;-1.00;99.90;;;;;;5035717;28;20073;-83
2023/03/11 02:10:51;;;;;;;16.73;6.07;;;-1.10;99.90;;;;;;5020900;28;20041;-83
2023/03/11 02:13:18;;;;;;;22.67;5.80;;;-1.00;99.90;;;;;;5036922;28;20470;-82
2023/03/11 02:15:45;;;;;;;13.68;5.40;;;-1.10;99.90;;;;;;5035897;28;20099;-83
2023/03/11 02:18:13;;;;;;;11.63;5.45;;;-1.10;99.90;;;;;;5036595;28;20115;-83
2023/03/11 02:20:40;;;;;;;17.13;5.38;;;-1.20;99.90;;;;;;5020332;28;20144;-83
2023/03/11 02:23:10;;;;;;;14.07;5.03;;;-1.20;99.90;;;;;;5035249;28;20049;-82
2023/03/11 02:25:37;;;;;;;16.58;5.35;;;-1.20;99.90;;;;;;5020313;28;20045;-82
2023/03/11 02:28:04;;;;;;;13.13;5.60;;;-1.30;99.90;;;;;;5019046;28;20045;-81
2023/03/11 02:30:31;;;;;;;14.27;4.90;;;-1.30;99.90;;;;;;5020135;28;20481;-81
2023/03/11 02:32:58;;;;;;;15.35;5.93;;;-1.30;99.90;;;;;;5036145;28;20539;-84
2023/03/11 02:35:25;;;;;;;13.80;4.80;;;-1.40;99.90;;;;;;5035833;28;20037;-82
2023/03/11 02:37:53;;;;;;;15.40;4.60;;;-1.40;99.90;;;;;;5019938;28;20091;-84
2023/03/11 02:40:21;;;;;;;12.48;4.88;;;-1.40;99.90;;;;;;5036301;28;20064;-83
2023/03/11 02:42:48;;;;;;;12.60;4.65;;;-1.40;99.90;;;;;;5035133;28;20376;-83
2023/03/11 02:45:16;;;;;;;15.80;5.72;;;-1.40;99.90;;;;;;5036414;28;20054;-82
2023/03/11 02:47:43;;;;;;;13.65;5.30;;;-1.50;99.90;;;;;;5018949;28;20048;-84
2023/03/11 02:50:10;;;;;;;18.70;5.32;;;-1.50;99.90;;;;;;5019685;28;20046;-82
2023/03/11 02:52:37;;;;;;;15.23;4.80;;;-1.40;99.90;;;;;;5035785;28;20471;-84
2023/03/11 02:55:03;;;;;;;12.05;4.93;;;-1.50;99.90;;;;;;5033872;28;20037;-81
2023/03/11 02:57:30;;;;;;;18.85;5.40;;;-1.50;99.90;;;;;;5037875;28;20048;-83
2023/03/11 02:59:58;;;;;;;13.38;5.50;;;-1.60;99.90;;;;;;5039331;28;20099;-81
2023/03/11 03:02:25;;;;;;;21.42;5.72;;;-1.60;99.90;;;;;;5054736;28;20397;-84
2023/03/11 03:04:52;;;;;;;16.35;5.18;;;-1.60;99.90;;;;;;5055815;28;20110;-81
2023/03/11 03:07:19;;;;;;;16.33;5.28;;;-1.60;99.90;;;;;;5055726;28;20037;-82
2023/03/11 03:09:45;;;;;;;18.52;5.50;;;-1.60;99.90;;;;;;5054693;28;20357;-85
2023/03/11 03:12:12;;;;;;;16.65;5.20;;;-1.60;99.90;;;;;;5055220;28;20041;-82
2023/03/11 03:14:39;;;;;;;14.65;4.90;;;-1.60;99.90;;;;;;5054570;28;20456;-85
2023/03/11 03:17:05;;;;;;;14.18;5.32;;;-1.60;99.90;;;;;;5055837;28;20063;-82
2023/03/11 03:19:32;;;;;;;15.50;5.93;;;-1.70;99.90;;;;;;5055851;28;20427;-83
2023/03/11 03:21:59;;;;;;;13.85;5.15;;;-1.70;99.90;;;;;;5055179;28;20045;-84
2023/03/11 03:24:26;;;;;;;11.02;4.57;;;-1.70;99.90;;;;;;5055715;28;20044;-83
2023/03/11 03:26:53;;;;;;;15.93;5.43;;;-1.70;99.90;;;;;;5055518;28;20143;-85
2023/03/11 03:29:20;;;;;;;17.52;5.05;;;-1.70;99.90;;;;;;5054256;28;20037;-80
2023/03/11 03:31:48;;;;;;;13.75;5.38;;;-1.70;99.90;;;;;;5038707;28;20120;-81
2023/03/11 03:34:14;;;;;;;15.10;5.22;;;-1.70;99.90;;;;;;5055258;28;20037;-82
2023/03/11 03:36:41;;;;;;;15.90;5.55;;;-1.70;99.90;;;;;;5055043;28;20372;-84
2023/03/11 03:39:09;;;;;;;18.05;4.70;;;-1.70;99.90;;;;;;5055358;28;20041;-82
2023/03/11 03:41:36;;;;;;;15.50;5.63;;;-1.80;99.90;;;;;;5053733;28;20039;-81
2023/03/11 03:44:04;;;;;;;14.40;5.05;;;-1.80;99.90;;;;;;5038824;28;20041;-85
2023/03/11 03:46:33;;;;;;;19.88;5.18;;;-1.80;99.90;;;;;;5055240;28;20383;-81
2023/03/11 03:49:00;;;;;;;15.32;5.15;;;-1.80;99.90;;;;;;5054346;28;20045;-84
2023/03/11 03:51:29;;;;;;;14.43;5.35;;;-1.90;99.90;;;;;;5038225;28;20055;-81
2023/03/11 03:54:04;;;;;;;13.98;4.75;;;-1.90;99.90;;;;;;5055231;28;20044;-82
2023/03/11 03:56:31;;;;;;;13.27;4.72;;;-1.90;99.90;;;;;;5037178;28;20446;-84
2023/03/11 03:58:58;;;;;;;14.23;5.18;;;-1.90;99.90;;;;;;5055156;28;20051;-83
2023/03/11 04:01:31;;;;;;;;;;;-2.00;99.90;;;;;;5054185;28;20045;-83
2023/03/11 04:03:58;;;;;;;12.70;4.35;;;-2.00;99.90;;;;;;5055064;28;19921;-85
2023/03/11 04:06:25;;;;;;;13.25;4.80;;;-2.00;99.90;;;;;;5037845;28;20069;-82
2023/03/11 04:09:03;;;;;;;12.93;5.00;;;-2.00;99.90;;;;;;5038531;28;20045;-82
2023/03/11 04:11:33;;;;;;;11.30;5.25;;;-2.00;99.90;;;;;;5054488;28;20411;-83
2023/03/11 04:14:01;;;;;;;13.07;4.55;;;-2.00;99.90;;;;;;5054492;28;20048;-83
2023/03/11 04:16:29;;;;;;;15.15;5.68;;;-2.00;99.90;;;;;;5053359;28;20455;-81
2023/03/11 04:19:04;;;;;;;13.52;4.95;;;-2.00;99.90;;;;;;5038836;28;20431;-84
2023/03/11 04:21:31;;;;;;;12.80;5.07;;;-2.00;99.90;;;;;;5053217;28;20056;-83
2023/03/11 04:23:58;;;;;;;19.25;4.68;;;-2.00;99.90;;;;;;5054432;28;20486;-84
2023/03/11 04:26:29;;;;;;;13.98;5.32;;;-2.00;99.90;;;;;;5054578;28;20045;-85
2023/03/11 04:28:55;;;;;;;10.20;4.55;;;-2.00;99.90;;;;;;5053252;28;20128;-83
2023/03/11 04:31:25;;;;;;;11.32;4.53;;;-2.00;99.90;;;;;;5053789;28;20047;-84
2023/03/11 04:33:53;;;;;;;14.70;5.43;;;-2.00;99.90;;;;;;5053979;28;20041;-83
2023/03/11 04:36:20;;;;;;;14.40;5.10;;;-2.00;99.90;;;;;;5052841;28;20410;-84
2023/03/11 04:38:47;;;;;;;13.70;5.65;;;-2.00;99.90;;;;;;5054262;28;20140;-83
2023/03/11 04:41:14;;;;;;;10.93;4.75;;;-1.90;99.90;;;;;;5052823;28;20315;-85
2023/03/11 04:43:43;;;;;;;13.10;4.30;;;-1.90;99.90;;;;;;5053913;28;20111;-84
2023/03/11 04:46:09;;;;;;;13.63;4.60;;;-1.80;99.90;;;;;;5053946;28;20056;-82
2023/03/11 04:48:38;;;;;;;11.05;4.88;;;-1.70;99.90;;;;;;5053139;28;20040;-82
2023/03/11 04:51:06;;;;;;;11.73;4.47;;;-1.70;99.90;;;;;;5037259;28;20037;-85
2023/03/11 04:53:33;;;;;;;12.20;4.72;;;-1.60;99.90;;;;;;5054037;28;20059;-81
2023/03/11 04:56:00;;;;;;;15.70;4.70;;;-1.50;99.90;;;;;;5049242;28;20037;-83
2023/03/11 04:58:28;;;;;;;12.35;4.85;;;-1.50;99.90;;;;;;5033777;28;20140;-84
2023/03/11 05:00:55;;;;;;;12.40;4.95;;;-1.40;99.90;;;;;;5032731;28;20125;-83
2023/03/11 05:03:22;;;;;;;13.63;4.68;;;-1.40;99.90;;;;;;5017879;28;20056;-82
2023/03/11 05:05:49;;;;;;;11.85;4.75;;;-1.30;99.90;;;;;;5017671;28;20041;-83
2023/03/11 05:08:18;;;;;;;12.95;4.55;;;-1.30;99.90;;;;;;5032726;28;20396;-83
2023/03/11 05:10:45;;;;;;;14.25;4.90;;;-1.20;99.90;;;;;;5017261;28;20034;-82
2023/03/11 05:13:11;;;;;;;13.90;5.35;;;-1.20;99.90;;;;;;5033641;28;20115;-82
2023/03/11 05:15:40;;;;;;;19.35;4.97;;;-1.10;99.90;;;;;;5032823;28;20107;-83
2023/03/11 05:18:07;;;;;;;11.40;5.05;;;-1.10;99.90;;;;;;5018472;28;20060;-84
2023/03/11 05:20:36;;;;;;;11.95;4.93;;;-1.00;99.90;;;;;;5037518;28;20042;-84
2023/03/11 05:23:03;;;;;;;15.30;4.65;;;-1.00;99.90;;;;;;5036850;28;20049;-82
2023/03/11 05:25:34;;;;;;;15.20;4.35;;;-0.90;99.90;;;;;;5037899;28;20045;-84
2023/03/11 05:28:01;;;;;;;11.27;4.82;;;-0.90;99.90;;;;;;5036901;28;20037;-84
2023/03/11 05:30:29;;;;;;;13.05;5.00;;;-0.90;99.90;;;;;;5021640;28;20511;-84
2023/03/11 05:32:57;;;;;;;10.77;4.13;;;-0.90;99.90;;;;;;5037992;28;20037;-84
2023/03/11 05:35:24;;;;;;;15.15;4.70;;;-0.80;99.90;;;;;;5020428;28;20041;-82
2023/03/11 05:37:52;;;;;;;12.05;4.22;;;-0.80;99.90;;;;;;5037584;28;20077;-84
2023/03/11 05:40:20;;;;;;;11.45;4.93;;;-0.80;99.90;;;;;;5038003;28;20049;-86
2023/03/11 05:42:47;;;;;;;12.45;4.55;;;-0.70;99.90;;;;;;5019979;28;20139;-82
2023/03/11 05:45:14;;;;;;;15.07;4.45;;;-0.70;99.90;;;;;;5037560;28;20434;-82
2023/03/11 05:47:43;;;;;;;13.20;4.40;;;-0.60;99.90;;;;;;5020648;28;20128;-84
2023/03/11 05:50:13;;;;;;;10.18;4.15;;;-0.70;99.90;;;;;;5037915;28;20056;-84
2023/03/11 05:52:41;;;;;;;12.57;4.05;;;-0.70;99.90;;;;;;5022618;28;20072;-83
2023/03/11 05:55:11;;;;;;;11.77;4.35;;;-0.70;99.90;;;;;;5037772;28;20041;-84
2023/03/11 05:57:39;;;;;;;14.15;4.47;;;-0.70;99.90;;;;;;5058753;28;20069;-83
2023/03/11 06:00:10;;;;;;;9.20;4.00;;;-0.70;99.90;;;;;;5059152;28;20147;-82
2023/03/11 06:02:43;;;;;;;9.27;3.40;;;-0.60;99.90;;;;;;5056913;28;20056;-82
2023/03/11 06:05:16;;;;;;;11.50;3.30;;;-0.60;99.90;;;;;;5042902;28;20102;-83
2023/03/11 06:07:44;;;;;;;9.70;3.42;;;-0.60;99.90;;;;;;5057392;28;20044;-83
2023/03/11 06:10:11;;;;;;;9.23;3.22;;;-0.50;99.90;;;;;;5041620;28;20067;-85
2023/03/11 06:12:38;;;;;;;10.68;3.85;;;-0.50;99.90;;;;;;5057547;28;20103;-86
2023/03/11 06:15:14;;;;;;;8.68;3.28;;;-0.50;99.90;;;;;;5055671;28;20098;-83
2023/03/11 06:17:41;;;;;;;11.60;3.60;;;-0.40;99.90;;;;;;5056651;28;20037;-80
2023/03/11 06:20:08;;;;;;;7.70;3.05;;;-0.40;99.90;;;;;;5056566;28;20068;-83
2023/03/11 06:22:35;;;;;;;11.07;3.90;;;-0.40;99.90;;;;;;5054980;28;20045;-81
2023/03/11 06:25:06;;;;;;;14.15;4.18;;;-0.40;99.90;;;;;;5056582;28;20045;-85
2023/03/11 06:27:33;;;;;;;9.90;3.42;;;-0.30;99.90;;;;;;5039470;28;20044;-84
2023/03/11 06:30:01;;;;;;;14.55;3.72;;;-0.30;99.90;;;;;;5056280;28;20519;-85
2023/03/11 06:32:33;;;;;;;9.63;3.65;;;-0.30;99.90;;;;;;5055969;28;20053;-84
2023/03/11 06:35:00;;;;;;;7.55;3.08;;;-0.30;99.90;;;;;;5055368;28;20479;-85
2023/03/11 06:37:26;;;;;;;14.98;3.10;;;-0.20;99.90;;;;;;5039548;28;20156;-84
2023/03/11 06:39:55;;;;;;;14.38;3.83;;;-0.20;99.90;;;;;;5056271;28;20486;-83
2023/03/11 06:42:24;;;;;;;11.38;4.00;;;-0.20;99.90;;;;;;5038486;28;20041;-83
2023/03/11 06:44:54;;;;;;;8.65;3.78;;;-0.20;99.90;;;;;;5039914;28;20144;-83
2023/03/11 06:47:21;;;;;;;9.07;3.58;;;-0.20;99.90;;;;;;5056037;28;20071;-84
2023/03/11 06:49:48;;;;;;;15.15;3.58;;;-0.20;99.90;;;;;;5054964;28;20081;-81
2023/03/11 06:52:15;;;;;;;11.35;3.67;;;-0.20;99.90;;;;;;5055766;28;20506;-82
2023/03/11 06:54:41;;;;;;;11.93;3.78;;;-0.10;99.90;;;;;;5054925;28;20037;-84
2023/03/11 06:57:08;;;;;;;11.55;3.75;;;-0.10;99.90;;;;;;5040596;28;20440;-80
2023/03/11 06:59:36;;;;;;;10.57;3.17;;;0.00;99.90;;;;;;5019777;28;20050;-83
2023/03/11 07:02:03;;;;;;;8.23;2.80;;;0.00;99.90;;;;;;5018185;28;20049;-86
2023/03/11 07:04:30;;;;;;;7.63;3.10;;;0.10;99.90;;;;;;5035991;28;20052;-82
2023/03/11 07:06:58;;;;;;;7.95;2.65;;;0.10;99.90;;;;;;5019555;28;20136;-82
2023/03/11 07:09:26;;;;;;;13.20;3.00;;;0.20;99.90;;;;;;5040002;28;20345;-84
2023/03/11 07:11:54;;;;;;;9.80;3.80;;;0.20;99.90;;;;;;5044659;28;20045;-83
2023/03/11 07:14:27;;;;;;;8.40;2.78;;;0.30;99.90;;;;;;5035602;28;20037;-85
2023/03/11 07:16:55;;;;;;;10.52;2.70;;;0.30;99.90;;;;;;5035873;28;20034;-82
2023/03/11 07:19:27;;;;;;;8.32;2.85;;;0.40;99.90;;;;;;5019976;28;20046;-82
2023/03/11 07:21:54;;;;;;;9.65;2.97;;;0.40;99.90;;;;;;5033758;28;20379;-82
2023/03/11 07:24:21;;;;;;;10.93;3.40;;;0.50;99.90;;;;;;5035241;28;20045;-83
2023/03/11 07:26:48;;;;;;;6.60;2.78;;;0.50;99.90;;;;;;5018991;28;20072;-83
2023/03/11 07:29:14;;;;;;;9.18;3.55;;;0.60;99.90;;;;;;5035136;28;20041;-85
2023/03/11 07:31:41;;;;;;;8.45;2.65;;;0.70;99.90;;;;;;5018649;28;20401;-84
2023/03/11 07:34:10;;;;;;;11.25;2.95;;;0.70;99.90;;;;;;5018847;28;20065;-83
2023/03/11 07:36:37;;;;;;;12.63;3.05;;;0.70;99.90;;;;;;5035035;28;20065;-84
2023/03/11 07:39:04;;;;;;;12.98;3.22;;;0.80;99.90;;;;;;5019043;28;20049;-83
2023/03/11 07:41:30;;;;;;;9.93;3.30;;;0.80;99.90;;;;;;5033391;28;20524;-84
2023/03/11 07:43:57;;;;;;;8.48;2.85;;;0.90;99.90;;;;;;5018680;28;20383;-83
2023/03/11 07:46:24;;;;;;;14.43;3.40;;;0.90;99.90;;;;;;5018515;28;20107;-84
2023/03/11 07:48:50;;;;;;;10.02;3.45;;;1.00;99.90;;;;;;5034010;28;20042;-84
2023/03/11 07:51:17;;;;;;;11.25;3.13;;;1.10;99.90;;;;;;5035325;28;20041;-85
2023/03/11 07:53:44;;;;;;;9.00;2.70;;;1.10;99.90;;;;;;5018572;28;20084;-85
2023/03/11 07:56:10;;;;;;;10.10;3.38;;;1.10;99.90;;;;;;5021219;28;20051;-84
2023/03/11 07:58:37;;;;;;;11.35;3.65;;;1.20;99.90;;;;;;5034997;28;20045;-85
2023/03/11 08:01:04;;;;;;;10.32;3.28;;;1.30;99.90;;;;;;5034348;28;20076;-83
2023/03/11 08:03:31;;;;;;;8.48;3.10;;;1.40;99.90;;;;;;5036333;28;20057;-85
2023/03/11 08:05:57;;;;;;;13.18;3.70;;;1.50;99.90;;;;;;5061956;28;20040;-82
2023/03/11 08:10:54;;;;;;;11.27;4.03;;;1.70;99.90;;;;;;5054832;28;20064;-81
2023/03/11 08:13:20;;;;;;;8.45;3.63;;;1.80;99.90;;;;;;5053942;28;20051;-83
2023/03/11 08:15:47;;;;;;;14.93;4.00;;;1.90;99.90;;;;;;5043814;28;20455;-80
2023/03/11 08:18:15;;;;;;;10.20;3.65;;;2.00;99.90;;;;;;5060781;28;20467;-78
2023/03/11 08:20:44;;;;;;;12.80;2.95;;;2.10;99.90;;;;;;5029673;28;20100;-82
2023/03/11 08:23:13;;;;;;;12.65;3.28;;;2.20;99.90;;;;;;5050057;28;20438;-81
2023/03/11 08:25:39;;;;;;;9.30;2.65;;;2.30;99.90;;;;;;5051362;28;20048;-79
2023/03/11 08:28:06;;;;;;;9.50;3.05;;;2.50;99.90;;;;;;5063832;28;20056;-81
2023/03/11 08:30:33;;;;;;;7.78;2.47;;;2.60;99.90;;;;;;5050258;28;20041;-79
2023/03/11 08:32:59;;;;;;;12.15;2.40;;;2.80;99.90;;;;;;5061013;28;20040;-80
2023/03/11 08:35:26;;;;;;;10.93;2.25;;;2.80;99.90;;;;;;5056602;28;20037;-81
2023/03/11 08:37:53;;;;;;;8.65;2.85;;;2.90;99.90;;;;;;5054564;28;20061;-80
2023/03/11 08:40:20;;;;;;;9.95;2.70;;;3.00;99.90;;;;;;5054791;28;20037;-80
2023/03/11 08:42:46;;;;;;;8.70;2.67;;;3.10;99.90;;;;;;5054439;28;20052;-78
2023/03/11 08:45:13;;;;;;;11.27;2.60;;;3.10;99.90;;;;;;5054800;28;20041;-81
2023/03/11 08:47:40;;;;;;;7.78;2.45;;;3.20;99.90;;;;;;5036107;28;20041;-79
2023/03/11 08:52:53;;;;;;;8.32;2.38;;;3.40;99.90;;;;;;5034978;28;20049;-81
2023/03/11 08:55:26;;;;;;;10.20;2.45;;;3.60;99.90;;;;;;5051064;28;20091;-81
2023/03/11 08:57:53;;;;;;;7.90;2.67;;;3.70;99.90;;;;;;5054070;28;20060;-82
2023/03/11 09:03:06;;;;;;;9.75;2.88;;;3.80;99.90;;;;;;5054178;28;20459;-80
2023/03/11 09:05:33;;;;;;;15.98;2.60;;;4.00;99.90;;;;;;5053506;28;20458;-78
2023/03/11 09:07:59;;;;;;;10.77;2.35;;;4.10;99.90;;;;;;5052788;28;20056;-78
2023/03/11 09:10:26;;;;;;;11.23;2.60;;;4.30;99.90;;;;;;5053091;28;20414;-79
2023/03/11 09:12:52;;;;;;;10.70;2.60;;;4.40;99.90;;;;;;5054423;28;20045;-78
2023/03/11 09:15:19;;;;;;;9.77;2.38;;;4.50;99.90;;;;;;5053529;28;20033;-79
2023/03/11 09:17:46;;;;;;;11.20;2.95;;;4.50;99.90;;;;;;5053821;28;20041;-80
2023/03/11 09:20:12;;;;;;;9.02;2.40;;;4.70;99.90;;;;;;5053184;28;20052;-81
2023/03/11 09:22:39;;;;;;;10.65;2.78;;;4.90;99.90;;;;;;5053562;28;20041;-81
2023/03/11 09:25:06;;;;;;;6.30;1.98;;;5.10;99.90;;;;;;5054298;28;20041;-79
2023/03/11 09:27:32;;;;;;;9.18;1.98;;;5.30;99.90;;;;;;5056823;28;20096;-80
2023/03/11 09:29:59;;;;;;;9.52;1.95;;;5.30;99.90;;;;;;5058013;28;20529;-78
2023/03/11 09:32:25;;;;;;;6.53;1.40;;;5.40;99.90;;;;;;5031865;28;20057;-79
2023/03/11 09:34:52;;;;;;;7.18;2.30;;;5.50;99.90;;;;;;5065356;28;20059;-81
2023/03/11 09:37:19;;;;;;;8.52;1.73;;;5.60;99.90;;;;;;5073944;28;20064;-78
2023/03/11 09:39:48;;;;;;;7.38;1.50;;;5.70;99.90;;;;;;5055618;28;20548;-79
2023/03/11 09:42:18;;;;;;;5.80;1.50;;;5.90;99.90;;;;;;5032428;28;20123;-78
2023/03/11 09:44:45;;;;;;;6.20;2.13;;;6.00;99.90;;;;;;5033984;28;20045;-79
2023/03/11 09:47:12;;;;;;;4.45;1.40;;;6.00;99.90;;;;;;5033150;28;20072;-79
2023/03/11 09:49:39;;;;;;;4.45;1.20;;;6.10;99.90;;;;;;5033119;28;20092;-80
2023/03/11 09:52:05;;;;;;;8.73;1.63;;;6.10;99.90;;;;;;5034853;28;20038;-79
2023/03/11 09:54:32;;;;;;;4.82;1.48;;;6.20;99.90;;;;;;5051106;28;20048;-83
2023/03/11 09:56:59;;;;;;;8.55;1.55;;;6.40;99.90;;;;;;5041452;28;20321;-82
2023/03/11 09:59:25;;;;;;;7.50;1.45;;;6.50;99.90;;;;;;5053153;28;20056;-83
2023/03/11 10:01:52;;;;;;;9.23;1.52;;;6.50;99.90;;;;;;5051587;28;20052;-80
2023/03/11 10:04:19;;;;;;;6.28;1.40;;;6.60;99.90;;;;;;5055056;28;20044;-79
2023/03/11 10:06:45;;;;;;;7.07;1.75;;;6.80;99.90;;;;;;5056384;28;20072;-84
2023/03/11 10:09:12;;;;;;;5.03;1.55;;;6.90;99.90;;;;;;5055767;28;20451;-85
2023/03/11 10:11:43;;;;;;;7.10;1.48;;;7.00;99.90;;;;;;5039921;28;20049;-83
2023/03/11 10:14:10;;;;;;;7.70;1.60;;;7.10;99.90;;;;;;5056530;28;20033;-80
2023/03/11 10:16:37;;;;;;;9.52;2.00;;;7.00;99.90;;;;;;5055414;28;20029;-80
2023/03/11 10:19:05;;;;;;;4.65;1.40;;;7.10;99.90;;;;;;5056397;28;20055;-82
2023/03/11 10:21:32;;;;;;;10.65;1.60;;;7.30;99.90;;;;;;5055883;28;20107;-83
2023/03/11 10:23:58;;;;;;;11.50;1.98;;;7.50;99.90;;;;;;5039699;28;20349;-81
2023/03/11 10:26:26;;;;;;;8.02;1.65;;;7.60;99.90;;;;;;5056838;28;20049;-82
2023/03/11 10:28:53;;;;;;;9.40;1.77;;;7.80;99.90;;;;;;5055262;28;20045;-80
2023/03/11 10:31:20;;;;;;;7.22;1.85;;;7.90;99.90;;;;;;5055926;28;20037;-80
2023/03/11 10:33:47;;;;;;;9.82;1.83;;;8.00;99.90;;;;;;5056038;28;20056;-80
2023/03/11 10:36:13;;;;;;;7.25;1.80;;;8.10;99.90;;;;;;5038339;28;20048;-80
2023/03/11 10:38:41;;;;;;;5.95;1.88;;;8.20;99.90;;;;;;5055372;28;20052;-83
2023/03/11 10:41:07;;;;;;;11.25;1.77;;;8.10;99.90;;;;;;5037548;28;20049;-78
2023/03/11 10:43:34;;;;;;;8.05;1.77;;;8.20;99.90;;;;;;5038933;28;20143;-80
2023/03/11 10:46:00;;;;;;;5.97;1.58;;;8.30;99.90;;;;;;5055201;28;20045;-80
2023/03/11 10:48:27;;;;;;;10.60;1.60;;;8.50;99.90;;;;;;5054150;28;20053;-78
2023/03/11 10:50:54;;;;;;;12.85;1.67;;;8.50;99.90;;;;;;5056307;28;20440;-79
2023/03/11 10:53:20;;;;;;;8.82;1.65;;;8.70;99.90;;;;;;5054972;28;20040;-79
2023/03/11 10:55:47;;;;;;;10.18;1.60;;;9.00;99.90;;;;;;5034765;28;20073;-78
2023/03/11 10:58:14;;;;;;;10.35;1.50;;;9.10;99.90;;;;;;5035762;28;20037;-81
2023/03/11 11:00:40;;;;;;;7.68;1.60;;;9.50;99.90;;;;;;5019184;28;20059;-79
2023/03/11 11:03:07;;;;;;;8.90;1.50;;;9.20;99.90;;;;;;5035059;28;20115;-79
2023/03/11 11:05:34;;;;;;;8.90;1.70;;;9.40;99.90;;;;;;5036671;28;20086;-79
2023/03/11 11:08:00;;;;;;;7.78;1.77;;;9.90;99.90;;;;;;5034775;28;20147;-78
2023/03/11 11:10:27;;;;;;;8.82;1.70;;;9.90;99.90;;;;;;5036396;28;20041;-79
2023/03/11 11:12:55;;;;;;;7.05;1.70;;;10.00;99.90;;;;;;5036562;28;20053;-79
2023/03/11 11:15:21;;;;;;;7.25;1.80;;;10.00;99.90;;;;;;5038019;28;20056;-79
2023/03/11 11:17:48;;;;;;;9.80;1.77;;;10.40;99.90;;;;;;5062902;28;20375;-80
2023/03/11 11:23:02;;;;;;;8.77;2.33;;;10.50;99.90;;;;;;5062656;28;20075;-82
2023/03/11 11:25:29;;;;;;;9.75;2.03;;;10.70;97.90;;;;;;5075532;28;20044;-81
2023/03/11 11:27:56;;;;;;;11.68;2.75;;;10.90;98.30;;;;;;5061220;28;20387;-81
2023/03/11 11:30:23;;;;;;;8.55;2.25;;;11.10;98.20;;;;;;5050204;28;20029;-79
2023/03/11 11:32:52;;;;;;;6.38;2.22;;;10.90;97.70;;;;;;5051887;28;20029;-78
2023/03/11 11:35:19;;;;;;;9.07;1.60;;;11.10;99.50;;;;;;5042994;28;20336;-80
2023/03/11 11:37:45;;;;;;;8.27;2.00;;;11.20;94.60;;;;;;5064622;28;20053;-79
2023/03/11 11:40:14;;;;;;;9.82;2.30;;;11.10;98.10;;;;;;5055239;28;20467;-79
2023/03/11 11:42:41;;;;;;;8.73;2.00;;;11.50;95.40;;;;;;5038901;28;20067;-80
2023/03/11 11:45:07;;;;;;;12.18;2.35;;;12.00;96.90;;;;;;5055189;28;20037;-79
2023/03/11 11:47:34;;;;;;;7.40;2.50;;;12.10;93.80;;;;;;5055844;28;20131;-79
2023/03/11 11:50:01;;;;;;;8.48;2.10;;;12.20;94.10;;;;;;5054571;28;20364;-80
2023/03/11 11:52:27;;;;;;;8.02;2.50;;;12.10;92.20;;;;;;5056182;28;20048;-81
2023/03/11 11:54:54;;;;;;;7.72;1.80;;;11.90;89.40;;;;;;5055045;28;20047;-77
2023/03/11 11:57:21;;;;;;;9.20;1.80;;;11.70;85.20;;;;;;5055457;28;20033;-79
2023/03/11 11:59:48;;;;;;;9.50;2.05;;;12.10;88.70;;;;;;5054404;28;20045;-81
2023/03/11 12:02:17;;;;;;;6.88;1.70;;;12.40;87.00;;;;;;5054654;28;20349;-79
2023/03/11 12:04:43;;;;;;;7.93;1.55;;;12.40;86.80;;;;;;5055551;28;20136;-80
2023/03/11 12:07:10;;;;;;;8.57;1.80;;;12.30;84.50;;;;;;5054137;28;20041;-76
2023/03/11 12:09:39;;;;;;;14.10;1.60;;;12.10;83.40;;;;;;5050451;28;20043;-78
2023/03/11 12:12:06;;;;;;;8.55;1.52;;;12.30;82.50;;;;;;5055338;28;20037;-84
2023/03/11 12:14:32;;;;;;;8.55;1.85;;;12.30;79.40;;;;;;5054112;28;20043;-79
2023/03/11 12:17:00;;;;;;;8.00;1.92;;;12.40;81.30;;;;;;5054288;28;20452;-80
2023/03/11 12:19:29;;;;;;;5.55;1.60;;;12.30;80.00;;;;;;5055406;28;20053;-81
2023/03/11 12:21:56;;;;;;;8.05;1.80;;;11.80;79.50;;;;;;5036687;28;20083;-83
2023/03/11 12:24:23;;;;;;;5.93;1.30;;;12.10;82.70;;;;;;5054432;28;20088;-85
2023/03/11 12:26:49;;;;;;;6.18;1.60;;;12.00;79.10;;;;;;5054438;28;20052;-84
2023/03/11 12:32:02;;;;;;;5.55;1.52;;;12.30;80.10;;;;;;5055152;28;20060;-83
2023/03/11 12:34:29;;;;;;;7.63;2.03;;;12.00;78.00;;;;;;5053111;28;20055;-85
2023/03/11 12:36:56;;;;;;;5.07;1.55;;;11.60;79.90;;;;;;5055116;28;20538;-83
2023/03/11 12:39:24;;;;;;;5.15;1.50;;;11.90;80.50;;;;;;5055370;28;20045;-83
2023/03/11 12:41:50;;;;;;;4.80;1.60;;;12.40;82.40;;;;;;5053491;28;20049;-85
2023/03/11 12:44:17;;;;;;;10.20;1.95;;;12.30;80.10;;;;;;5037720;28;20049;-84
2023/03/11 12:46:43;;;;;;;8.23;1.40;;;12.30;79.80;;;;;;5055067;28;20055;-82
2023/03/11 12:49:12;;;;;;;4.35;1.33;;;13.00;79.40;;;;;;5053181;28;20518;-81
2023/03/11 12:51:39;;;;;;;5.80;1.50;;;12.50;77.50;;;;;;5037945;28;20357;-80
2023/03/11 12:54:06;;;;;;;6.03;1.50;;;12.70;79.40;;;;;;5054600;28;20037;-83
2023/03/11 12:56:33;;;;;;;6.28;1.30;;;13.10;78.30;;;;;;5043843;28;20073;-82